createdAt,value
2022-10-18T00:01:00.787Z,61.22
2022-10-18T00:03:39.439Z,61.39
2022-10-18T00:06:09.294Z,61.58
2022-10-18T00:08:38.820Z,61.59
2022-10-18T00:11:06.636Z,61.73
2022-10-18T00:13:34.427Z,61.78
2022-10-18T00:16:05.001Z,61.91
2022-10-18T00:18:32.869Z,62.01
2022-10-18T00:21:06.771Z,65.72
2022-10-18T00:23:35.414Z,63.22
2022-10-18T00:26:08.635Z,55.85
2022-10-18T00:28:36.822Z,53.03
2022-10-18T00:31:17.880Z,53.50
2022-10-18T00:33:47.084Z,54.61
2022-10-18T00:36:14.750Z,55.41
2022-10-18T00:38:43.122Z,56.19
2022-10-18T00:41:14.404Z,56.92
2022-10-18T00:44:10.229Z,57.63
2022-10-18T00:46:43.786Z,58.07
2022-10-18T00:49:15.495Z,58.73
2022-10-18T00:51:46.801Z,59.30
2022-10-18T00:54:16.361Z,59.86
2022-10-18T00:56:44.913Z,60.27
2022-10-18T00:59:15.743Z,60.60
2022-10-18T01:01:43.891Z,61.08
2022-10-18T01:04:13.846Z,61.38
2022-10-18T01:07:18.246Z,61.77
2022-10-18T01:10:00.612Z,67.67
2022-10-18T01:12:34.202Z,61.83
2022-10-18T01:15:20.293Z,54.71
2022-10-18T01:18:12.210Z,52.41
2022-10-18T01:20:54.885Z,53.24
2022-10-18T01:23:47.402Z,54.40
2022-10-18T01:26:33.434Z,55.32
2022-10-18T01:29:29.976Z,56.46
2022-10-18T01:32:01.739Z,57.27
2022-10-18T01:34:33.975Z,58.24
2022-10-18T01:37:04.912Z,58.85
2022-10-18T01:39:36.756Z,59.44
2022-10-18T01:42:10.409Z,59.88
2022-10-18T01:44:40.967Z,60.40
2022-10-18T01:47:12.326Z,60.59
2022-10-18T01:49:39.879Z,61.03
2022-10-18T01:52:16.123Z,61.55
2022-10-18T01:54:49.089Z,61.86
2022-10-18T01:57:34.753Z,66.58
2022-10-18T02:00:16.339Z,62.67
2022-10-18T02:02:49.804Z,54.25
2022-10-18T02:05:40.318Z,52.71
2022-10-18T02:08:31.119Z,53.76
2022-10-18T02:11:10.706Z,54.87
2022-10-18T02:13:57.973Z,55.91
2022-10-18T02:16:34.664Z,56.65
2022-10-18T02:19:15.786Z,57.45
2022-10-18T02:21:45.511Z,58.05
2022-10-18T02:24:15.281Z,58.80
2022-10-18T02:26:43.414Z,59.35
2022-10-18T02:29:11.452Z,59.84
2022-10-18T02:31:48.661Z,60.37
2022-10-18T02:34:23.852Z,60.84
2022-10-18T02:36:55.040Z,61.13
2022-10-18T02:39:30.413Z,61.47
2022-10-18T02:41:59.541Z,61.60
2022-10-18T02:44:27.122Z,66.03
2022-10-18T02:46:54.703Z,62.88
2022-10-18T02:49:22.480Z,54.52
2022-10-18T02:51:49.962Z,52.08
2022-10-18T02:54:17.441Z,52.63
2022-10-18T02:56:45.065Z,53.66
2022-10-18T02:59:12.814Z,54.54
2022-10-18T03:01:40.516Z,55.32
2022-10-18T03:04:08.413Z,56.09
2022-10-18T03:06:35.936Z,56.78
2022-10-18T03:09:05.095Z,57.41
2022-10-18T03:11:33.337Z,58.06
2022-10-18T03:14:00.878Z,58.49
2022-10-18T03:16:28.798Z,58.99
2022-10-18T03:18:56.285Z,59.44
2022-10-18T03:21:23.895Z,59.73
2022-10-18T03:23:51.460Z,60.08
2022-10-18T03:26:19.029Z,60.42
2022-10-18T03:28:46.599Z,60.85
2022-10-18T03:31:14.167Z,61.07
2022-10-18T03:33:41.736Z,61.37
2022-10-18T03:36:12.148Z,61.71
2022-10-18T03:38:39.675Z,61.89
2022-10-18T03:41:07.192Z,66.22
2022-10-18T03:43:34.864Z,63.88
2022-10-18T03:46:02.442Z,55.22
2022-10-18T03:48:29.989Z,52.81
2022-10-18T03:50:57.552Z,53.54
2022-10-18T03:53:25.183Z,54.56
2022-10-18T03:55:54.277Z,55.53
2022-10-18T03:58:22.805Z,56.38
2022-10-18T04:00:51.955Z,57.33
2022-10-18T04:03:21.312Z,57.94
2022-10-18T04:05:49.740Z,58.77
2022-10-18T04:08:18.354Z,59.36
2022-10-18T04:10:46.465Z,59.86
2022-10-18T04:13:14.175Z,60.33
2022-10-18T04:15:41.813Z,60.63
2022-10-18T04:18:09.515Z,61.05
2022-10-18T04:20:37.124Z,61.41
2022-10-18T04:23:04.684Z,65.39
2022-10-18T04:25:32.348Z,64.04
2022-10-18T04:27:59.894Z,56.85
2022-10-18T04:30:27.425Z,53.53
2022-10-18T04:32:54.950Z,54.11
2022-10-18T04:35:24.587Z,55.11
2022-10-18T04:37:52.238Z,56.23
2022-10-18T04:40:20.100Z,57.33
2022-10-18T04:42:47.792Z,58.27
2022-10-18T04:45:15.393Z,58.96
2022-10-18T04:47:42.904Z,59.52
2022-10-18T04:50:10.478Z,60.03
2022-10-18T04:52:38.149Z,60.56
2022-10-18T04:55:06.297Z,61.19
2022-10-18T04:57:34.239Z,61.57
2022-10-18T05:00:02.212Z,66.10
2022-10-18T05:02:30.228Z,63.84
2022-10-18T05:04:58.131Z,55.79
2022-10-18T05:07:25.729Z,53.25
2022-10-18T05:09:53.324Z,54.02
2022-10-18T05:12:20.905Z,55.15
2022-10-18T05:14:48.736Z,56.33
2022-10-18T05:17:16.686Z,57.40
2022-10-18T05:19:44.202Z,57.94
2022-10-18T05:22:11.782Z,58.71
2022-10-18T05:24:39.339Z,59.40
2022-10-18T05:27:06.987Z,60.03
2022-10-18T05:29:34.566Z,60.62
2022-10-18T05:32:02.138Z,61.31
2022-10-18T05:34:32.037Z,61.74
2022-10-18T05:36:59.918Z,66.67
2022-10-18T05:39:27.552Z,64.16
2022-10-18T05:41:55.134Z,56.33
2022-10-18T05:44:22.629Z,53.66
2022-10-18T05:46:50.148Z,54.39
2022-10-18T05:49:17.883Z,55.54
2022-10-18T05:51:45.436Z,56.45
2022-10-18T05:54:13.547Z,57.25
2022-10-18T05:56:41.233Z,58.32
2022-10-18T05:59:12.494Z,59.22
2022-10-18T06:01:42.185Z,59.74
2022-10-18T06:04:10.306Z,60.14
2022-10-18T06:06:38.951Z,60.55
2022-10-18T06:09:08.525Z,61.07
2022-10-18T06:11:37.026Z,65.47
2022-10-18T06:14:05.142Z,63.34
2022-10-18T06:16:33.027Z,56.23
2022-10-18T06:19:00.686Z,53.73
2022-10-18T06:21:28.277Z,53.99
2022-10-18T06:23:58.015Z,55.31
2022-10-18T06:26:27.326Z,56.41
2022-10-18T06:28:55.093Z,56.58
2022-10-18T06:31:23.100Z,57.27
2022-10-18T06:33:50.836Z,57.52
2022-10-18T06:36:23.945Z,57.91
2022-10-18T06:38:52.529Z,58.52
2022-10-18T06:41:20.487Z,58.31
2022-10-18T06:43:53.773Z,58.86
2022-10-18T06:46:21.340Z,59.42
2022-10-18T06:48:49.078Z,59.85
2022-10-18T06:51:18.224Z,60.05
2022-10-18T06:53:59.214Z,59.82
2022-10-18T06:56:33.851Z,59.86
2022-10-18T06:59:02.129Z,59.37
2022-10-18T07:01:30.046Z,60.52
2022-10-18T07:03:57.678Z,60.05
2022-10-18T07:06:25.566Z,60.04
2022-10-18T07:08:54.096Z,59.57
2022-10-18T07:11:25.105Z,59.88
2022-10-18T07:14:00.837Z,59.67
2022-10-18T07:16:29.226Z,59.43
2022-10-18T07:18:57.313Z,59.53
2022-10-18T07:21:26.622Z,59.51
2022-10-18T07:23:56.203Z,59.24
2022-10-18T07:26:29.041Z,59.79
2022-10-18T07:29:00.490Z,59.56
2022-10-18T07:31:29.048Z,59.45
2022-10-18T07:33:56.647Z,59.45
2022-10-18T07:36:25.538Z,59.11
2022-10-18T07:38:53.222Z,58.66
2022-10-18T07:41:21.636Z,58.95
2022-10-18T07:43:51.306Z,59.30
2022-10-18T07:46:20.776Z,58.53
2022-10-18T07:48:48.793Z,59.04
2022-10-18T07:51:17.950Z,59.02
2022-10-18T07:53:46.012Z,58.61
2022-10-18T07:56:16.469Z,58.84
2022-10-18T07:58:45.442Z,58.37
2022-10-18T08:01:14.418Z,58.29
2022-10-18T08:03:42.927Z,57.88
2022-10-18T08:06:12.946Z,56.89
2022-10-18T08:08:41.197Z,55.59
2022-10-18T08:11:17.638Z,55.33
2022-10-18T08:13:45.410Z,54.84
2022-10-18T08:16:16.619Z,54.59
2022-10-18T08:18:44.277Z,54.53
2022-10-18T08:21:12.935Z,53.46
2022-10-18T08:23:40.949Z,53.48
2022-10-18T08:26:14.055Z,51.86
2022-10-18T08:28:49.156Z,51.66
2022-10-18T08:31:26.046Z,51.04
2022-10-18T08:33:56.912Z,50.31
2022-10-18T08:36:24.811Z,51.01
2022-10-18T08:38:52.448Z,50.41
2022-10-18T08:41:49.564Z,50.51
2022-10-18T08:44:28.465Z,51.55
2022-10-18T08:47:02.632Z,51.80
2022-10-18T08:49:41.778Z,50.72
2022-10-18T08:52:58.407Z,51.32
2022-10-18T08:55:53.002Z,49.92
2022-10-18T08:58:26.687Z,49.59
2022-10-18T09:01:23.392Z,49.64
2022-10-18T09:03:56.787Z,48.83
2022-10-18T09:06:35.947Z,49.58
2022-10-18T09:09:21.235Z,48.17
2022-10-18T09:12:07.164Z,46.89
2022-10-18T09:14:49.697Z,47.23
2022-10-18T09:17:58.875Z,47.47
2022-10-18T09:20:45.259Z,47.91
2022-10-18T09:23:20.419Z,45.49
2022-10-18T09:25:53.822Z,46.30
2022-10-18T09:28:57.332Z,45.39
2022-10-18T09:31:30.883Z,45.85
2022-10-18T09:34:05.848Z,46.35
2022-10-18T09:36:35.648Z,45.73
2022-10-18T09:39:13.517Z,45.31
2022-10-18T09:41:47.505Z,45.92
2022-10-18T09:44:36.149Z,45.47
2022-10-18T09:47:16.488Z,45.30
2022-10-18T09:49:49.445Z,45.05
2022-10-18T09:52:26.669Z,42.77
2022-10-18T09:54:58.145Z,43.65
2022-10-18T09:57:38.230Z,42.59
2022-10-18T10:00:17.067Z,43.11
2022-10-18T10:02:44.713Z,43.19
2022-10-18T10:05:14.370Z,44.83
2022-10-18T10:07:44.993Z,44.59
2022-10-18T10:10:20.114Z,44.08
2022-10-18T10:12:49.046Z,43.73
2022-10-18T10:15:29.561Z,43.64
2022-10-18T10:18:04.939Z,43.81
2022-10-18T10:20:45.728Z,44.46
2022-10-18T10:23:20.506Z,44.43
2022-10-18T10:26:01.354Z,44.13
2022-10-18T10:28:35.019Z,43.49
2022-10-18T10:31:38.030Z,43.97
2022-10-18T10:34:06.807Z,43.75
2022-10-18T10:36:35.148Z,43.72
2022-10-18T10:39:18.631Z,43.53
2022-10-18T10:41:48.965Z,43.28
2022-10-18T10:44:19.662Z,42.61
2022-10-18T10:46:49.689Z,43.80
2022-10-18T10:52:26.875Z,43.61
2022-10-18T10:57:48.406Z,42.28
2022-10-18T11:00:34.201Z,42.43
2022-10-18T11:03:31.215Z,42.46
2022-10-18T11:06:00.975Z,42.85
2022-10-18T11:08:35.892Z,42.25
2022-10-18T11:11:28.400Z,41.77
2022-10-18T11:14:26.168Z,42.10
2022-10-18T11:17:07.903Z,42.81
2022-10-18T11:20:07.355Z,42.58
2022-10-18T11:23:03.612Z,43.34
2022-10-18T11:25:46.250Z,43.71
2022-10-18T11:28:36.074Z,43.72
2022-10-18T11:31:31.770Z,43.83
2022-10-18T11:34:27.217Z,43.94
2022-10-18T11:37:32.328Z,43.91
2022-10-18T11:40:29.671Z,44.46
2022-10-18T11:43:15.342Z,44.88
2022-10-18T11:46:06.966Z,45.04
2022-10-18T11:49:25.809Z,45.56
2022-10-18T11:52:35.267Z,45.93
2022-10-18T11:55:28.899Z,46.54
2022-10-18T11:58:06.857Z,47.11
2022-10-18T12:00:50.409Z,47.33
2022-10-18T12:03:52.957Z,47.52
2022-10-18T12:06:34.060Z,47.85
2022-10-18T12:09:08.189Z,48.13
2022-10-18T12:11:46.977Z,48.17
2022-10-18T12:14:38.144Z,48.45
2022-10-18T12:17:42.804Z,48.59
2022-10-18T12:20:23.180Z,48.76
2022-10-18T12:23:01.250Z,48.84
2022-10-18T12:25:32.421Z,49.24
2022-10-18T12:28:16.259Z,49.98
2022-10-18T12:31:07.092Z,50.16
2022-10-18T12:33:40.068Z,50.42
2022-10-18T12:36:35.104Z,50.72
2022-10-18T12:39:06.906Z,51.03
2022-10-18T12:41:35.851Z,51.26
2022-10-18T12:44:05.866Z,51.63
2022-10-18T12:46:47.211Z,51.89
2022-10-18T12:49:17.372Z,51.91
2022-10-18T12:51:59.385Z,51.73
2022-10-18T12:54:32.861Z,52.22
2022-10-18T12:57:02.356Z,52.69
2022-10-18T12:59:30.033Z,53.41
2022-10-18T13:02:00.609Z,53.47
2022-10-18T13:04:28.222Z,53.33
2022-10-18T13:06:59.355Z,53.83
2022-10-18T13:09:29.747Z,54.21
2022-10-18T13:12:09.664Z,54.05
2022-10-18T13:15:07.325Z,54.72
2022-10-18T13:17:58.045Z,54.31
2022-10-18T13:20:58.016Z,54.57
2022-10-18T13:23:38.272Z,54.82
2022-10-18T13:26:14.960Z,55.12
2022-10-18T13:28:54.534Z,55.47
2022-10-18T13:32:19.242Z,55.42
2022-10-18T13:34:46.892Z,55.56
2022-10-18T13:37:15.540Z,55.86
2022-10-18T13:39:43.469Z,56.08
2022-10-18T13:42:13.895Z,56.38
2022-10-18T13:44:44.738Z,56.93
2022-10-18T13:47:15.377Z,56.87
2022-10-18T13:50:12.291Z,57.11
2022-10-18T13:53:01.575Z,57.34
2022-10-18T13:55:38.210Z,57.41
2022-10-18T13:58:34.876Z,57.40
2022-10-18T14:01:23.267Z,57.08
2022-10-18T14:04:29.961Z,56.72
2022-10-18T14:07:03.725Z,56.55
2022-10-18T14:09:44.775Z,56.69
2022-10-18T14:12:37.804Z,56.76
2022-10-18T14:15:16.851Z,56.82
2022-10-18T14:17:56.764Z,57.00
2022-10-18T14:20:49.482Z,57.15
2022-10-18T14:23:29.799Z,57.33
2022-10-18T14:26:14.958Z,57.50
2022-10-18T14:29:00.252Z,57.56
2022-10-18T14:31:28.307Z,57.82
2022-10-18T14:33:58.573Z,57.71
2022-10-18T14:36:41.089Z,57.66
2022-10-18T14:39:22.571Z,57.69
2022-10-18T14:41:51.537Z,57.93
2022-10-18T14:44:24.453Z,58.02
2022-10-18T14:47:24.739Z,58.43
2022-10-18T14:49:57.891Z,58.74
2022-10-18T14:52:35.087Z,59.18
2022-10-18T14:55:03.478Z,59.48
2022-10-18T14:57:37.382Z,59.86
2022-10-18T15:00:09.405Z,59.78
2022-10-18T15:02:38.866Z,60.06
2022-10-18T15:05:17.288Z,60.33
2022-10-18T15:07:45.406Z,60.64
2022-10-18T15:10:25.434Z,60.84
2022-10-18T15:13:10.485Z,60.97
2022-10-18T15:15:39.935Z,61.09
2022-10-18T15:18:22.788Z,61.30
2022-10-18T15:21:23.277Z,61.51
2022-10-18T15:23:51.954Z,61.81
2022-10-18T15:26:26.706Z,62.01
2022-10-18T15:28:56.589Z,66.35
2022-10-18T15:31:28.830Z,63.38
2022-10-18T15:34:26.089Z,56.54
2022-10-18T15:36:57.145Z,54.69
2022-10-18T15:39:27.754Z,55.70
2022-10-18T15:41:56.304Z,56.58
2022-10-18T15:44:31.845Z,57.63
2022-10-18T15:47:20.952Z,57.95
2022-10-18T15:49:51.072Z,58.78
2022-10-18T15:52:21.333Z,60.70
2022-10-18T15:57:24.018Z,65.33
2022-10-18T16:00:00.598Z,59.30
2022-10-18T16:02:28.681Z,56.38
2022-10-18T16:05:03.015Z,59.05
2022-10-18T16:07:31.091Z,62.03
2022-10-18T16:09:58.853Z,66.98
2022-10-18T16:12:26.626Z,61.73
2022-10-18T16:14:54.278Z,57.89
2022-10-18T16:17:21.923Z,60.04
2022-10-18T16:19:49.550Z,63.16
2022-10-18T16:22:17.282Z,65.38
2022-10-18T16:24:44.922Z,58.81
2022-10-18T16:27:14.592Z,58.41
2022-10-18T16:29:42.251Z,61.56
2022-10-18T16:32:09.778Z,64.88
2022-10-18T16:34:37.527Z,64.27
2022-10-18T16:37:05.151Z,60.24
2022-10-18T16:39:34.916Z,56.45
2022-10-18T16:42:02.765Z,57.41
2022-10-18T16:44:30.505Z,60.00
2022-10-18T16:46:58.017Z,65.21
2022-10-18T16:49:26.750Z,63.03
2022-10-18T16:51:55.280Z,58.76
2022-10-18T16:54:23.559Z,58.10
2022-10-18T16:56:51.589Z,59.74
2022-10-18T16:59:26.299Z,64.23
2022-10-18T17:01:54.101Z,62.97
2022-10-18T17:04:22.814Z,60.58
2022-10-18T17:06:54.274Z,58.19
2022-10-18T17:09:21.888Z,58.73
2022-10-18T17:11:49.804Z,61.22
2022-10-18T17:14:17.349Z,67.04
2022-10-18T17:16:47.074Z,64.80
2022-10-18T17:19:18.310Z,60.62
2022-10-18T17:21:45.887Z,57.43
2022-10-18T17:24:13.586Z,58.35
2022-10-18T17:26:41.122Z,62.16
2022-10-18T17:29:09.011Z,65.63
2022-10-18T17:31:36.914Z,64.50
2022-10-18T17:34:05.114Z,62.05
2022-10-18T17:36:33.885Z,58.08
2022-10-18T17:39:02.347Z,60.22
2022-10-18T17:41:30.580Z,63.54
2022-10-18T17:43:58.217Z,61.56
2022-10-18T17:46:26.050Z,58.57
2022-10-18T17:48:53.697Z,61.47
2022-10-18T17:51:22.013Z,63.45
2022-10-18T17:53:49.982Z,59.89
2022-10-18T17:56:17.490Z,57.90
2022-10-18T17:58:46.791Z,60.17
2022-10-18T18:01:18.729Z,63.24
2022-10-18T18:03:49.934Z,64.18
2022-10-18T18:06:21.125Z,60.75
2022-10-18T18:08:49.918Z,58.28
2022-10-18T18:11:17.878Z,59.00
2022-10-18T18:13:45.524Z,61.10
2022-10-18T18:16:14.067Z,66.60
2022-10-18T18:18:42.597Z,65.33
2022-10-18T18:21:10.496Z,61.49
2022-10-18T18:23:38.177Z,59.59
2022-10-18T18:26:06.131Z,57.00
2022-10-18T18:28:35.966Z,58.11
2022-10-18T18:31:19.500Z,60.54
2022-10-18T18:33:47.100Z,66.20
2022-10-18T18:36:14.797Z,64.63
2022-10-18T18:38:45.342Z,62.36
2022-10-18T18:41:18.732Z,59.27
2022-10-18T18:43:51.296Z,56.57
2022-10-18T18:46:18.931Z,58.52
2022-10-18T18:48:46.500Z,60.24
2022-10-18T18:51:16.770Z,64.19
2022-10-18T18:53:45.817Z,63.79
2022-10-18T18:56:17.490Z,60.01
2022-10-18T18:58:46.399Z,56.83
2022-10-18T19:01:17.447Z,57.42
2022-10-18T19:03:47.517Z,58.94
2022-10-18T19:06:18.781Z,61.60
2022-10-18T19:08:48.504Z,67.30
2022-10-18T19:11:22.466Z,64.97
2022-10-18T19:13:50.315Z,62.30
2022-10-18T19:16:31.960Z,59.33
2022-10-18T19:19:07.042Z,56.88
2022-10-18T19:21:46.538Z,58.42
2022-10-18T19:24:14.167Z,59.60
2022-10-18T19:26:45.390Z,65.27
2022-10-18T19:29:21.265Z,65.05
2022-10-18T19:31:50.248Z,61.87
2022-10-18T19:34:19.523Z,58.46
2022-10-18T19:36:48.783Z,56.99
2022-10-18T19:39:20.828Z,58.75
2022-10-18T19:41:50.654Z,59.09
2022-10-18T19:44:20.126Z,65.39
2022-10-18T19:46:48.663Z,65.02
2022-10-18T19:49:16.827Z,61.40
2022-10-18T19:51:44.813Z,57.80
2022-10-18T19:54:15.116Z,57.20
2022-10-18T19:56:43.090Z,58.71
2022-10-18T19:59:12.212Z,60.77
2022-10-18T20:01:39.953Z,67.12
2022-10-18T20:04:09.448Z,64.90
2022-10-18T20:06:38.407Z,60.94
2022-10-18T20:09:07.833Z,57.29
2022-10-18T20:11:37.135Z,56.86
2022-10-18T20:14:09.517Z,58.40
2022-10-18T20:16:37.720Z,60.25
2022-10-18T20:19:07.534Z,66.65
2022-10-18T20:21:36.412Z,64.40
2022-10-18T20:24:05.703Z,59.45
2022-10-18T20:26:33.716Z,56.36
2022-10-18T20:29:01.634Z,58.06
2022-10-18T20:31:31.257Z,60.43
2022-10-18T20:34:02.534Z,65.30
2022-10-18T20:36:31.828Z,62.95
2022-10-18T20:38:59.415Z,58.25
2022-10-18T20:41:30.947Z,56.39
2022-10-18T20:44:01.370Z,58.34
2022-10-18T20:46:33.943Z,60.75
2022-10-18T20:49:02.053Z,65.51
2022-10-18T20:51:29.942Z,62.44
2022-10-18T20:53:57.683Z,57.67
2022-10-18T20:56:28.907Z,56.58
2022-10-18T20:58:58.169Z,58.57
2022-10-18T21:01:28.643Z,60.67
2022-10-18T21:03:58.168Z,66.55
2022-10-18T21:06:31.247Z,63.51
2022-10-18T21:09:01.423Z,59.11
2022-10-18T21:11:31.724Z,55.84
2022-10-18T21:14:02.610Z,57.92
2022-10-18T21:16:31.908Z,60.40
2022-10-18T21:19:06.726Z,65.78
2022-10-18T21:21:35.113Z,63.63
2022-10-18T21:24:06.946Z,58.47
2022-10-18T21:26:36.345Z,56.89
2022-10-18T21:29:05.324Z,59.14
2022-10-18T21:31:35.391Z,61.14
2022-10-18T21:34:18.023Z,65.88
2022-10-18T21:36:47.471Z,64.06
2022-10-18T21:39:18.058Z,59.97
2022-10-18T21:41:46.229Z,56.57
2022-10-18T21:44:15.372Z,57.39
2022-10-18T21:46:43.160Z,59.73
2022-10-18T21:49:11.758Z,65.21
2022-10-18T21:51:40.063Z,64.16
2022-10-18T21:54:12.014Z,60.21
2022-10-18T21:56:39.970Z,56.80
2022-10-18T21:59:07.746Z,56.53
2022-10-18T22:01:37.232Z,58.80
2022-10-18T22:04:07.705Z,60.91
2022-10-18T22:06:36.379Z,65.55
2022-10-18T22:09:08.196Z,65.71
2022-10-18T22:11:40.294Z,61.54
2022-10-18T22:14:08.137Z,58.11
2022-10-18T22:16:35.998Z,56.89
2022-10-18T22:24:24.750Z,64.75
2022-10-18T22:26:52.380Z,65.82
2022-10-18T22:29:21.269Z,61.62
2022-10-18T22:31:53.805Z,59.85
2022-10-18T22:34:29.085Z,56.65
2022-10-18T22:36:57.041Z,57.16
2022-10-18T22:39:25.249Z,58.32
2022-10-18T22:41:55.912Z,60.65
2022-10-18T22:44:24.364Z,65.07
2022-10-18T22:46:51.922Z,64.48
2022-10-18T22:49:19.413Z,60.93
2022-10-18T22:51:46.966Z,57.71
2022-10-18T22:54:14.749Z,57.29
2022-10-18T22:56:42.320Z,59.15
2022-10-18T22:59:09.841Z,62.56
2022-10-18T23:01:37.838Z,65.02
2022-10-18T23:04:05.363Z,62.74
2022-10-18T23:06:35.800Z,59.01
2022-10-18T23:09:06.327Z,57.14
2022-10-18T23:11:35.322Z,59.12
2022-10-18T23:14:05.046Z,60.99
2022-10-18T23:16:32.648Z,66.18
2022-10-18T23:19:00.220Z,65.29
2022-10-18T23:21:28.771Z,61.24
2022-10-18T23:23:57.007Z,58.04
2022-10-18T23:26:27.028Z,57.82
2022-10-18T23:28:55.127Z,59.66
2022-10-18T23:31:28.625Z,61.32
2022-10-18T23:33:58.566Z,66.25
2022-10-18T23:36:27.254Z,63.97
2022-10-18T23:38:55.423Z,60.67
2022-10-18T23:41:23.364Z,57.78
2022-10-18T23:43:51.209Z,57.43
2022-10-18T23:46:19.403Z,59.29
2022-10-18T23:48:48.193Z,62.46
2022-10-18T23:51:17.661Z,65.72
2022-10-18T23:53:45.559Z,62.14
2022-10-18T23:56:15.639Z,59.76
2022-10-18T23:58:44.380Z,56.58
